Time;durP1;ratioP1;P1;durP2;ratioP2;P2;SDS_P1;SDS_P2;PMS_P1;PMS_P2;Temp;Humidity;BMP_temperature;BMP_pressure;BME280_temperature;BME280_humidity;BME280_pressure;Samples;Min_cycle;Max_cycle;Signal;HPM_P1;HPM_P2
2021/06/25 00:01:17;;;;;;;30.75;24.75;;;16.20;99.90;;;;;;5094635;28;20492;-67
2021/06/25 00:03:42;;;;;;;30.05;24.33;;;16.20;99.90;;;;;;5094260;28;20376;-67
2021/06/25 00:06:08;;;;;;;32.95;26.30;;;16.20;99.90;;;;;;5094558;28;20035;-67
2021/06/25 00:08:33;;;;;;;31.85;25.80;;;16.30;99.90;;;;;;5092939;28;20031;-67
2021/06/25 00:10:59;;;;;;;34.45;26.67;;;16.20;99.90;;;;;;5094647;28;20066;-67
2021/06/25 00:13:25;;;;;;;33.55;26.70;;;16.20;99.90;;;;;;5094151;28;20047;-67
2021/06/25 00:15:50;;;;;;;35.95;27.52;;;16.20;99.90;;;;;;5094365;28;20426;-67
2021/06/25 00:18:16;;;;;;;35.90;27.70;;;16.20;99.90;;;;;;5094337;28;20601;-67
2021/06/25 00:20:41;;;;;;;36.28;27.77;;;16.20;99.90;;;;;;5094530;28;20481;-67
2021/06/25 00:23:07;;;;;;;38.10;29.48;;;16.10;99.90;;;;;;5075887;28;20070;-67
2021/06/25 00:25:32;;;;;;;40.70;31.00;;;16.10;99.90;;;;;;5093900;28;20103;-67
2021/06/25 00:27:58;;;;;;;37.30;29.58;;;16.00;99.90;;;;;;5092724;28;20099;-67
2021/06/25 00:30:24;;;;;;;37.38;28.60;;;15.90;99.90;;;;;;5094389;28;20024;-67
2021/06/25 00:32:50;;;;;;;37.97;28.92;;;15.80;99.90;;;;;;5092875;28;20035;-67
2021/06/25 00:35:16;;;;;;;37.40;30.08;;;15.70;99.90;;;;;;5092608;28;20023;-67
2021/06/25 00:37:43;;;;;;;44.58;29.63;;;15.60;99.90;;;;;;5094070;28;20073;-67
2021/06/25 00:40:10;;;;;;;37.13;30.20;;;15.50;99.90;;;;;;5094333;28;20452;-67
2021/06/25 00:42:36;;;;;;;45.42;30.35;;;15.50;99.90;;;;;;5092874;28;20103;-67
2021/06/25 00:45:19;;;;;;;40.92;31.40;;;15.40;99.90;;;;;;5094253;28;20054;-67
2021/06/25 00:47:46;;;;;;;39.67;30.63;;;15.30;99.90;;;;;;5094053;28;20020;-67
2021/06/25 00:50:15;;;;;;;45.97;32.25;;;15.20;99.90;;;;;;5094132;28;20036;-67
2021/06/25 00:52:41;;;;;;;40.92;32.22;;;15.20;99.90;;;;;;5093417;28;20036;-67
2021/06/25 00:55:07;;;;;;;45.53;33.20;;;15.10;99.90;;;;;;5093864;28;20075;-67
2021/06/25 00:57:33;;;;;;;43.83;33.22;;;15.10;99.90;;;;;;5092287;28;20107;-67
2021/06/25 00:59:59;;;;;;;46.67;34.28;;;15.00;99.90;;;;;;5093537;28;20100;-67
2021/06/25 01:02:24;;;;;;;45.13;33.13;;;14.90;99.90;;;;;;5094052;28;20427;-67
2021/06/25 01:04:50;;;;;;;48.08;34.65;;;15.00;99.90;;;;;;5094074;28;20029;-67
2021/06/25 01:07:16;;;;;;;49.40;34.33;;;15.00;99.90;;;;;;5093733;28;20028;-67
2021/06/25 01:09:43;;;;;;;47.42;35.38;;;15.00;99.90;;;;;;5093970;28;20020;-67
2021/06/25 01:12:10;;;;;;;46.05;33.25;;;15.00;99.90;;;;;;5093648;28;20028;-67
2021/06/25 01:14:38;;;;;;;48.33;35.83;;;15.10;99.90;;;;;;5093654;28;20107;-67
2021/06/25 01:17:06;;;;;;;53.55;36.58;;;15.10;99.90;;;;;;5092457;28;20025;-66
2021/06/25 01:19:32;;;;;;;47.67;36.25;;;15.20;99.90;;;;;;5093859;28;20016;-67
2021/06/25 01:21:57;;;;;;;54.65;37.17;;;15.30;99.90;;;;;;5093587;28;20032;-67
2021/06/25 01:24:23;;;;;;;48.25;35.83;;;15.30;99.90;;;;;;5093851;28;20020;-67
2021/06/25 01:26:49;;;;;;;52.35;36.70;;;15.40;99.90;;;;;;5093558;28;20415;-67
2021/06/25 01:29:14;;;;;;;50.22;35.40;;;15.40;99.90;;;;;;5093220;28;20031;-67
2021/06/25 01:31:40;;;;;;;52.22;36.92;;;15.40;99.90;;;;;;5092283;28;20164;-67
2021/06/25 01:34:06;;;;;;;55.97;38.95;;;15.50;99.90;;;;;;5092286;28;20024;-67
2021/06/25 01:36:32;;;;;;;57.42;40.10;;;15.50;99.90;;;;;;5093747;28;20020;-67
2021/06/25 01:39:01;;;;;;;58.83;42.13;;;15.50;99.90;;;;;;5093728;28;20450;-67
2021/06/25 01:41:26;;;;;;;52.50;39.10;;;15.60;99.90;;;;;;5092310;28;20377;-67
2021/06/25 01:43:52;;;;;;;60.28;39.47;;;15.60;99.90;;;;;;5093638;28;20028;-67
2021/06/25 01:46:19;;;;;;;59.75;40.92;;;15.60;99.90;;;;;;5093667;28;20028;-67
2021/06/25 01:48:45;;;;;;;54.85;38.70;;;15.70;99.90;;;;;;5093575;28;20115;-67
2021/06/25 01:51:11;;;;;;;54.17;38.45;;;15.80;99.90;;;;;;5092768;28;20133;-67
2021/06/25 01:53:36;;;;;;;49.45;36.88;;;15.80;99.90;;;;;;5093048;28;20485;-67
2021/06/25 01:56:03;;;;;;;46.55;36.03;;;15.80;99.90;;;;;;5093283;28;20028;-67
2021/06/25 01:58:31;;;;;;;48.38;35.67;;;15.90;99.90;;;;;;5093606;28;20012;-67
2021/06/25 02:01:09;;;;;;;49.35;35.00;;;15.90;99.90;;;;;;5095386;28;20449;-67
2021/06/25 02:03:35;;;;;;;45.30;34.47;;;16.00;99.90;;;;;;5097153;28;20028;-67
2021/06/25 02:06:00;;;;;;;45.03;34.78;;;16.00;99.90;;;;;;5096836;28;20377;-67
2021/06/25 02:08:26;;;;;;;46.80;34.92;;;15.90;99.90;;;;;;5096808;28;20024;-67
2021/06/25 02:10:51;;;;;;;48.55;36.05;;;15.90;99.90;;;;;;5097012;28;20050;-67
2021/06/25 02:13:17;;;;;;;51.72;38.13;;;15.90;99.90;;;;;;5096896;28;20031;-67
2021/06/25 02:15:43;;;;;;;63.67;39.15;;;15.90;99.90;;;;;;5096898;28;20027;-67
2021/06/25 02:18:08;;;;;;;48.65;37.00;;;16.00;99.90;;;;;;5096889;28;20103;-67
2021/06/25 02:20:34;;;;;;;51.40;38.42;;;16.00;99.90;;;;;;5096573;28;20059;-67
2021/06/25 02:22:59;;;;;;;53.50;38.83;;;16.00;99.90;;;;;;5096783;28;20024;-67
2021/06/25 02:25:25;;;;;;;52.58;38.63;;;16.00;99.90;;;;;;5096464;28;20024;-67
2021/06/25 02:27:51;;;;;;;51.03;37.40;;;16.00;99.90;;;;;;5096693;28;20032;-67
2021/06/25 02:30:17;;;;;;;49.00;36.78;;;16.00;99.90;;;;;;5096140;28;20028;-67
2021/06/25 02:32:45;;;;;;;51.40;36.90;;;16.10;99.90;;;;;;5096498;28;20027;-67
2021/06/25 02:35:11;;;;;;;50.28;37.60;;;16.10;99.90;;;;;;5095130;28;20485;-67
2021/06/25 02:37:37;;;;;;;51.47;36.80;;;16.00;99.90;;;;;;5096289;28;20481;-67
2021/06/25 02:40:03;;;;;;;51.65;37.08;;;16.00;99.90;;;;;;5096461;28;20105;-67
2021/06/25 02:42:29;;;;;;;53.92;37.47;;;16.00;99.90;;;;;;5095857;28;20028;-67
2021/06/25 02:44:54;;;;;;;52.38;37.95;;;16.00;99.90;;;;;;5096114;28;20036;-67
2021/06/25 02:47:20;;;;;;;56.45;38.60;;;16.00;99.90;;;;;;5096071;28;20099;-67
2021/06/25 02:49:46;;;;;;;56.83;40.25;;;16.00;99.90;;;;;;5095761;28;20016;-67
2021/06/25 02:52:11;;;;;;;52.83;37.47;;;16.00;99.90;;;;;;5095582;28;20051;-67
2021/06/25 02:54:37;;;;;;;51.25;36.63;;;16.00;99.90;;;;;;5096177;28;20026;-67
2021/06/25 02:57:03;;;;;;;51.70;36.65;;;16.00;99.90;;;;;;5094338;28;20055;-67
2021/06/25 02:59:29;;;;;;;50.22;36.72;;;16.00;99.90;;;;;;5095829;28;20515;-67
2021/06/25 03:01:55;;;;;;;51.05;37.47;;;15.90;99.90;;;;;;5096088;28;20020;-67
2021/06/25 03:04:20;;;;;;;50.92;37.72;;;16.00;99.90;;;;;;5095750;28;20085;-67
2021/06/25 03:06:46;;;;;;;49.10;35.72;;;15.90;99.90;;;;;;5095936;28;20041;-67
2021/06/25 03:09:12;;;;;;;52.72;37.05;;;15.90;99.90;;;;;;5094712;28;20028;-67
2021/06/25 03:11:38;;;;;;;46.85;34.55;;;15.90;99.90;;;;;;5095734;28;20373;-67
2021/06/25 03:14:03;;;;;;;51.20;34.30;;;15.80;99.90;;;;;;5095774;28;20031;-67
2021/06/25 03:16:29;;;;;;;50.85;35.88;;;15.70;99.90;;;;;;5095754;28;20020;-67
2021/06/25 03:18:54;;;;;;;49.67;36.53;;;15.50;99.90;;;;;;5095704;28;20026;-67
2021/06/25 03:21:20;;;;;;;53.85;36.25;;;15.40;99.90;;;;;;5095412;28;20113;-67
2021/06/25 03:23:46;;;;;;;54.53;37.15;;;15.30;99.90;;;;;;5095641;28;20469;-67
2021/06/25 03:26:12;;;;;;;56.13;37.53;;;15.20;99.90;;;;;;5095567;28;20016;-67
2021/06/25 03:28:37;;;;;;;59.13;37.42;;;15.10;99.90;;;;;;5095559;28;20446;-67
2021/06/25 03:31:03;;;;;;;56.20;38.08;;;15.10;99.90;;;;;;5094007;28;20060;-67
2021/06/25 03:33:28;;;;;;;53.60;38.38;;;15.00;99.90;;;;;;5095339;28;20027;-67
2021/06/25 03:35:54;;;;;;;58.20;38.15;;;15.00;99.90;;;;;;5093945;28;20024;-67
2021/06/25 03:38:20;;;;;;;57.28;38.95;;;14.90;99.90;;;;;;5095392;28;20030;-67
2021/06/25 03:40:45;;;;;;;59.05;38.20;;;14.80;99.90;;;;;;5095249;28;20496;-67
2021/06/25 03:43:11;;;;;;;61.30;39.25;;;14.80;99.90;;;;;;5094698;28;20040;-67
2021/06/25 03:45:37;;;;;;;58.20;37.78;;;14.70;99.90;;;;;;5095174;28;20103;-67
2021/06/25 03:48:04;;;;;;;66.57;40.25;;;14.80;99.90;;;;;;5094806;28;20114;-67
2021/06/25 03:50:29;;;;;;;55.47;38.03;;;14.70;99.90;;;;;;5095102;28;20395;-67
2021/06/25 03:52:55;;;;;;;62.35;39.25;;;14.70;99.90;;;;;;5094263;28;20044;-67
2021/06/25 03:55:21;;;;;;;57.88;40.25;;;14.70;99.90;;;;;;5095009;28;20028;-67
2021/06/25 03:57:46;;;;;;;61.75;39.47;;;14.70;99.90;;;;;;5094699;28;20027;-67
2021/06/25 04:00:16;;;;;;;59.50;40.65;;;14.70;99.90;;;;;;5094365;28;20035;-67
2021/06/25 04:02:42;;;;;;;58.63;40.17;;;14.70;99.90;;;;;;5094885;28;20020;-67
2021/06/25 04:05:09;;;;;;;60.60;39.85;;;14.80;99.90;;;;;;5076618;28;20020;-67
2021/06/25 04:07:35;;;;;;;57.35;40.00;;;14.80;99.90;;;;;;5093335;28;20027;-67
2021/06/25 04:10:02;;;;;;;57.30;38.22;;;14.90;99.90;;;;;;5094763;28;20060;-67
2021/06/25 04:12:28;;;;;;;55.08;37.67;;;15.00;99.90;;;;;;5094645;28;20048;-67
2021/06/25 04:14:53;;;;;;;58.33;38.28;;;15.10;99.90;;;;;;5094662;28;20055;-67
2021/06/25 04:17:19;;;;;;;56.30;36.42;;;15.20;99.90;;;;;;5094664;28;20429;-67
2021/06/25 04:19:45;;;;;;;55.80;35.38;;;15.30;99.90;;;;;;5094606;28;20038;-67
2021/06/25 04:22:11;;;;;;;53.88;35.08;;;15.40;99.90;;;;;;5093885;28;20032;-67
2021/06/25 04:24:36;;;;;;;59.00;36.92;;;15.60;99.90;;;;;;5093995;28;20032;-67
2021/06/25 04:27:02;;;;;;;50.13;34.70;;;15.70;99.90;;;;;;5093319;28;20032;-67
2021/06/25 04:29:27;;;;;;;54.80;35.60;;;15.70;99.90;;;;;;5092637;28;20390;-67
2021/06/25 04:31:53;;;;;;;53.22;36.53;;;15.70;99.90;;;;;;5094316;28;20028;-67
2021/06/25 04:34:20;;;;;;;48.75;35.50;;;15.90;99.90;;;;;;5092912;28;20378;-67
2021/06/25 04:36:46;;;;;;;51.85;33.47;;;16.20;99.90;;;;;;5094329;28;20024;-67
2021/06/25 04:39:12;;;;;;;47.20;33.58;;;16.30;99.90;;;;;;5093122;28;20522;-67
2021/06/25 04:41:37;;;;;;;40.40;31.20;;;16.50;99.90;;;;;;5094274;28;20067;-67
2021/06/25 04:44:04;;;;;;;43.35;30.48;;;16.80;99.90;;;;;;5093684;28;20403;-67
2021/06/25 04:46:29;;;;;;;42.50;28.02;;;17.20;99.90;;;;;;5093963;28;20039;-67
2021/06/25 04:48:55;;;;;;;38.38;27.73;;;17.50;99.90;;;;;;5075525;28;20032;-67
2021/06/25 04:51:21;;;;;;;36.30;26.95;;;17.50;99.90;;;;;;5093714;28;20055;-67
2021/06/25 04:53:46;;;;;;;38.72;25.48;;;17.60;99.90;;;;;;5094091;28;20028;-67
2021/06/25 04:56:12;;;;;;;35.58;25.60;;;17.50;99.90;;;;;;5093572;28;20024;-67
2021/06/25 04:58:37;;;;;;;34.72;25.85;;;17.50;99.90;;;;;;5093787;28;20020;-67
2021/06/25 05:01:03;;;;;;;33.38;22.88;;;17.90;99.90;;;;;;5094061;28;20024;-67
2021/06/25 05:03:29;;;;;;;26.85;22.77;;;18.10;99.90;;;;;;5094053;28;20054;-67
2021/06/25 05:05:55;;;;;;;32.17;23.90;;;17.70;99.90;;;;;;5093715;28;20028;-67
2021/06/25 05:08:20;;;;;;;33.15;24.63;;;17.40;99.90;;;;;;5094025;28;20350;-67
2021/06/25 05:10:46;;;;;;;35.78;24.23;;;17.20;99.90;;;;;;5093697;28;20035;-67
2021/06/25 05:13:13;;;;;;;35.20;23.58;;;16.90;99.90;;;;;;5093311;28;20028;-67
2021/06/25 05:15:39;;;;;;;32.83;24.55;;;16.80;99.90;;;;;;5093970;28;20093;-67
2021/06/25 05:18:22;;;;;;;33.80;24.25;;;16.70;99.90;;;;;;5093884;28;20024;-67
2021/06/25 05:20:50;;;;;;;35.25;24.10;;;16.70;99.90;;;;;;5093359;28;20048;-67
2021/06/25 05:23:18;;;;;;;35.10;25.02;;;16.50;99.90;;;;;;5092433;28;20032;-67
2021/06/25 05:25:44;;;;;;;36.97;24.58;;;16.40;99.90;;;;;;5093830;28;20024;-67
2021/06/25 05:28:11;;;;;;;34.53;24.20;;;16.40;99.90;;;;;;5093781;28;20540;-67
2021/06/25 05:30:37;;;;;;;35.65;24.73;;;16.40;99.90;;;;;;5092434;28;20025;-67
2021/06/25 05:33:03;;;;;;;37.97;24.70;;;16.40;99.90;;;;;;5093691;28;20381;-67
2021/06/25 05:35:31;;;;;;;38.53;25.60;;;16.20;99.90;;;;;;5097054;28;20107;-67
2021/06/25 05:38:03;;;;;;;35.75;25.33;;;16.20;99.90;;;;;;5096206;28;20031;-67
2021/06/25 05:40:29;;;;;;;36.15;25.25;;;16.20;99.90;;;;;;5097236;28;20026;-67
2021/06/25 05:42:55;;;;;;;36.60;25.23;;;16.40;99.90;;;;;;5097231;28;20028;-67
2021/06/25 05:45:21;;;;;;;35.65;25.60;;;16.50;99.90;;;;;;5096886;28;20048;-67
2021/06/25 05:47:47;;;;;;;35.97;26.15;;;16.60;99.90;;;;;;5097931;28;20353;-67
2021/06/25 05:50:13;;;;;;;32.80;24.55;;;16.80;99.90;;;;;;5097342;28;20035;-67
2021/06/25 05:52:38;;;;;;;40.22;26.20;;;17.00;99.90;;;;;;5096498;28;20044;-67
2021/06/25 05:55:05;;;;;;;32.25;25.13;;;17.00;99.90;;;;;;5096741;28;20035;-67
2021/06/25 05:57:30;;;;;;;34.53;24.05;;;17.10;99.90;;;;;;5097003;28;20036;-67
2021/06/25 05:59:56;;;;;;;34.53;24.92;;;17.50;99.90;;;;;;5095730;28;20028;-67
2021/06/25 06:02:21;;;;;;;35.10;24.00;;;17.90;99.90;;;;;;5095830;28;20048;-67
2021/06/25 06:04:47;;;;;;;30.27;22.65;;;18.90;99.90;;;;;;5096025;28;20391;-67
2021/06/25 06:07:13;;;;;;;28.73;21.88;;;19.40;99.90;;;;;;5096481;28;20028;-67
2021/06/25 06:09:39;;;;;;;35.67;26.23;;;19.60;99.90;;;;;;5084904;28;20029;-67
2021/06/25 06:12:05;;;;;;;35.00;25.05;;;18.90;99.90;;;;;;5077981;28;20032;-67
2021/06/25 06:14:30;;;;;;;33.15;25.35;;;19.10;99.90;;;;;;5075948;28;20117;-67
2021/06/25 06:16:56;;;;;;;35.17;25.25;;;18.90;99.90;;;;;;5075866;28;20025;-67
2021/06/25 06:19:21;;;;;;;34.33;25.25;;;19.00;99.90;;;;;;5084156;28;20036;-67
2021/06/25 06:32:59;;;;;;;32.92;23.67;;;20.10;99.90;;;;;;5095706;28;20028;-67
2021/06/25 06:35:25;;;;;;;29.42;23.45;;;20.40;99.90;;;;;;5095911;28;20020;-67
2021/06/25 06:37:52;;;;;;;31.58;23.63;;;21.10;99.90;;;;;;5096197;28;20024;-67
2021/06/25 06:40:19;;;;;;;31.77;24.05;;;21.20;99.90;;;;;;5095149;28;20490;-67
2021/06/25 06:42:47;;;;;;;31.10;24.60;;;21.40;99.90;;;;;;5094965;28;20085;-67
2021/06/25 06:45:15;;;;;;;30.67;24.02;;;21.30;99.90;;;;;;5091607;28;20495;-67
2021/06/25 06:47:40;;;;;;;29.20;24.15;;;21.50;99.90;;;;;;5095975;28;20035;-67
2021/06/25 06:50:06;;;;;;;30.52;23.50;;;21.50;99.90;;;;;;5094893;28;20040;-67
2021/06/25 06:52:32;;;;;;;30.17;22.88;;;21.80;99.90;;;;;;5095169;28;20040;-67
2021/06/25 06:54:57;;;;;;;32.33;24.52;;;22.00;99.90;;;;;;5078786;28;20037;-68
2021/06/25 06:57:23;;;;;;;29.70;23.23;;;22.50;99.90;;;;;;5075589;28;20479;-68
2021/06/25 06:59:48;;;;;;;29.80;23.98;;;22.50;99.90;;;;;;5078425;28;20028;-68
2021/06/25 07:02:14;;;;;;;32.60;23.88;;;22.50;99.90;;;;;;5094614;28;20076;-68
2021/06/25 07:04:39;;;;;;;30.30;23.88;;;23.10;99.90;;;;;;5082029;28;20090;-68
2021/06/25 07:07:05;;;;;;;30.20;24.25;;;22.80;99.90;;;;;;5088714;28;20394;-67
2021/06/25 07:09:31;;;;;;;34.00;26.02;;;22.50;99.90;;;;;;5094466;28;20071;-67
2021/06/25 07:11:57;;;;;;;36.33;26.40;;;22.30;99.90;;;;;;5092598;28;20428;-67
2021/06/25 07:14:23;;;;;;;35.38;28.10;;;22.00;99.90;;;;;;5093370;28;20020;-68
2021/06/25 07:16:48;;;;;;;38.45;27.30;;;21.60;99.90;;;;;;5076132;28;20493;-68
2021/06/25 07:19:15;;;;;;;37.47;26.60;;;21.70;99.90;;;;;;5074117;28;20032;-68
2021/06/25 07:21:41;;;;;;;35.17;26.75;;;22.00;99.90;;;;;;5077304;28;20114;-68
2021/06/25 07:24:07;;;;;;;39.03;26.27;;;21.80;99.90;;;;;;5088483;28;20124;-68
2021/06/25 07:26:32;;;;;;;34.78;25.52;;;21.80;99.90;;;;;;5093343;28;20031;-68
2021/06/25 07:28:58;;;;;;;37.97;26.48;;;21.90;99.90;;;;;;5088636;28;20067;-68
2021/06/25 07:31:24;;;;;;;33.47;26.52;;;21.60;99.90;;;;;;5093782;28;20024;-68
2021/06/25 07:33:49;;;;;;;36.38;27.38;;;22.10;99.90;;;;;;5094646;28;20121;-68
2021/06/25 07:36:17;;;;;;;33.70;25.27;;;22.20;99.90;;;;;;5089288;28;20047;-67
2021/06/25 07:38:44;;;;;;;37.58;25.58;;;22.30;99.90;;;;;;5073206;28;20028;-68
2021/06/25 07:41:09;;;;;;;31.98;26.05;;;22.10;99.90;;;;;;5081442;28;20024;-68
2021/06/25 07:43:35;;;;;;;33.45;26.73;;;22.20;99.90;;;;;;5089531;28;20035;-68
2021/06/25 07:46:00;;;;;;;35.13;27.08;;;22.40;99.90;;;;;;5093267;28;20024;-68
2021/06/25 07:48:26;;;;;;;34.00;26.88;;;22.60;99.90;;;;;;5093510;28;20054;-67
2021/06/25 07:50:51;;;;;;;33.78;26.83;;;22.50;99.90;;;;;;5093422;28;20119;-68
2021/06/25 07:53:17;;;;;;;38.08;27.10;;;22.40;99.90;;;;;;5094122;28;20024;-67
2021/06/25 07:55:44;;;;;;;37.25;27.65;;;21.90;99.90;;;;;;5092416;28;20453;-67
2021/06/25 07:58:12;;;;;;;35.17;25.88;;;22.10;99.90;;;;;;5086326;28;20029;-67
2021/06/25 08:00:38;;;;;;;37.25;25.20;;;21.60;99.90;;;;;;5074749;28;20020;-67
2021/06/25 08:03:04;;;;;;;31.52;23.08;;;21.60;99.90;;;;;;5073723;28;20029;-67
2021/06/25 08:05:30;;;;;;;29.02;21.20;;;22.10;99.90;;;;;;5078053;28;20050;-68
2021/06/25 08:07:55;;;;;;;32.45;21.90;;;22.20;99.90;;;;;;5093415;28;20081;-67
2021/06/25 08:10:21;;;;;;;24.38;19.80;;;21.80;99.90;;;;;;5091881;28;20032;-67
2021/06/25 08:12:46;;;;;;;26.48;19.85;;;21.70;99.90;;;;;;5093009;28;20033;-68
2021/06/25 08:15:12;;;;;;;27.48;20.45;;;21.80;99.90;;;;;;5093748;28;20107;-68
2021/06/25 08:17:38;;;;;;;24.15;18.27;;;22.20;99.90;;;;;;5075577;28;20035;-68
2021/06/25 08:20:04;;;;;;;24.75;18.42;;;22.40;99.90;;;;;;5080118;28;20028;-68
2021/06/25 08:22:30;;;;;;;26.35;18.10;;;22.80;99.90;;;;;;5091806;28;20016;-67
2021/06/25 08:24:56;;;;;;;20.35;16.90;;;22.40;99.90;;;;;;5092496;28;20039;-67
2021/06/25 08:27:21;;;;;;;19.17;14.20;;;21.80;99.90;;;;;;5071735;28;20036;-67
2021/06/25 08:29:47;;;;;;;24.10;13.95;;;21.90;99.90;;;;;;5076315;28;20188;-67
2021/06/25 08:32:12;;;;;;;16.65;12.13;;;21.50;99.90;;;;;;5091848;28;20081;-67
2021/06/25 08:34:38;;;;;;;14.23;9.60;;;22.00;99.90;;;;;;5090538;28;20035;-67
2021/06/25 08:37:04;;;;;;;13.95;7.85;;;22.20;99.90;;;;;;5084017;28;20029;-67
2021/06/25 08:39:30;;;;;;;13.27;7.40;;;22.40;95.70;;;;;;5092601;28;20031;-67
2021/06/25 08:42:01;;;;;;;8.90;5.90;;;22.50;92.20;;;;;;5074322;28;20390;-67
2021/06/25 08:44:27;;;;;;;11.68;5.68;;;22.40;88.70;;;;;;5087394;28;20529;-68
2021/06/25 08:46:52;;;;;;;10.10;5.93;;;22.60;90.30;;;;;;5093431;28;20108;-68
2021/06/25 08:49:19;;;;;;;7.65;5.70;;;23.30;90.20;;;;;;5078782;28;20032;-68
2021/06/25 08:51:48;;;;;;;6.90;5.60;;;23.10;86.70;;;;;;5082973;28;20122;-68
2021/06/25 08:54:14;;;;;;;7.50;5.35;;;23.00;84.30;;;;;;5089819;28;20028;-68
2021/06/25 08:56:39;;;;;;;8.68;5.28;;;23.20;83.30;;;;;;5081875;28;20032;-68
2021/06/25 08:59:05;;;;;;;7.18;5.57;;;22.90;76.50;;;;;;5073004;28;20021;-75
2021/06/25 09:01:32;;;;;;;8.57;5.70;;;22.40;75.70;;;;;;5074044;28;20255;-75
2021/06/25 09:03:58;;;;;;;8.45;5.45;;;21.70;79.30;;;;;;5078170;28;20025;-75
2021/06/25 09:06:25;;;;;;;10.48;6.00;;;22.20;78.20;;;;;;5090472;28;20024;-69
2021/06/25 09:08:51;;;;;;;8.20;6.25;;;23.00;77.30;;;;;;5095626;28;20173;-68
2021/06/25 09:13:58;;;;;;;9.40;7.22;;;23.00;77.00;;;;;;5138852;27;20535;-68
2021/06/25 09:16:27;;;;;;;12.77;6.55;;;23.10;74.30;;;;;;5130984;28;20088;-68
2021/06/25 09:18:59;;;;;;;7.90;6.30;;;23.20;76.50;;;;;;5112962;28;20533;-68
2021/06/25 09:21:25;;;;;;;13.10;7.85;;;23.30;78.90;;;;;;5130865;28;20093;-68
2021/06/25 09:23:50;;;;;;;12.98;7.72;;;22.90;75.60;;;;;;5131034;28;20027;-68
2021/06/25 09:26:20;;;;;;;12.38;7.05;;;23.20;75.30;;;;;;5131063;28;20450;-67
2021/06/25 09:28:47;;;;;;;8.70;7.15;;;22.80;76.70;;;;;;5130246;28;20020;-68
2021/06/25 09:31:18;;;;;;;9.80;7.55;;;22.90;74.60;;;;;;5130101;28;20076;-68
2021/06/25 09:33:55;;;;;;;12.88;7.47;;;23.20;76.20;;;;;;5130074;28;20019;-68
2021/06/25 09:36:38;;;;;;;10.85;8.30;;;23.90;76.40;;;;;;5131202;28;20020;-68
2021/06/25 09:39:09;;;;;;;;;;;24.20;73.90;;;;;;5131866;28;20019;-68
2021/06/25 09:41:37;;;;;;;12.07;8.85;;;24.30;73.80;;;;;;5130022;28;19907;-68
2021/06/25 09:44:10;;;;;;;10.93;7.75;;;24.40;72.70;;;;;;5130612;28;20019;-68
2021/06/25 09:46:37;;;;;;;9.15;7.57;;;25.20;69.20;;;;;;5130797;28;20520;-68
2021/06/25 09:49:06;;;;;;;9.25;8.07;;;24.60;64.80;;;;;;5129720;28;20465;-68
2021/06/25 09:51:32;;;;;;;9.27;7.20;;;24.50;64.30;;;;;;5129355;28;20020;-68
2021/06/25 09:54:04;;;;;;;12.10;7.10;;;23.70;60.80;;;;;;5117651;28;20034;-68
2021/06/25 09:56:31;;;;;;;13.90;8.02;;;23.60;62.70;;;;;;5127796;28;20070;-69
2021/06/25 09:59:26;;;;;;;8.90;6.53;;;23.70;66.50;;;;;;5112187;28;20016;-68
2021/06/25 10:01:52;;;;;;;8.95;7.30;;;24.30;63.30;;;;;;5128896;28;20486;-68
2021/06/25 10:04:34;;;;;;;10.77;7.60;;;24.00;65.50;;;;;;5129824;28;20114;-68
2021/06/25 10:07:17;;;;;;;9.48;6.97;;;24.30;63.50;;;;;;5111454;28;20038;-67
2021/06/25 10:09:44;;;;;;;12.18;6.78;;;24.90;64.20;;;;;;5130686;28;20023;-68
2021/06/25 10:12:11;;;;;;;11.80;7.60;;;24.90;65.40;;;;;;5130138;28;20039;-68
2021/06/25 10:14:38;;;;;;;12.30;7.80;;;24.60;68.20;;;;;;5130541;28;20064;-68
2021/06/25 10:17:05;;;;;;;11.50;8.00;;;25.00;71.70;;;;;;5111599;28;20023;-68
2021/06/25 10:19:33;;;;;;;11.32;8.25;;;25.50;68.90;;;;;;5130044;28;20173;-68
2021/06/25 10:22:02;;;;;;;14.40;9.00;;;25.90;68.00;;;;;;5130018;28;20164;-68
2021/06/25 10:24:32;;;;;;;11.13;7.88;;;24.90;71.00;;;;;;5120993;28;20046;-68
2021/06/25 10:27:00;;;;;;;14.18;8.20;;;24.90;74.90;;;;;;5116595;28;20380;-68
2021/06/25 10:29:25;;;;;;;12.32;9.18;;;25.40;76.30;;;;;;5116381;28;20035;-68
2021/06/25 10:31:51;;;;;;;11.32;9.25;;;26.20;73.30;;;;;;5115880;28;20036;-68
2021/06/25 10:34:17;;;;;;;11.52;9.27;;;25.90;72.10;;;;;;5098155;28;20493;-68
2021/06/25 10:36:44;;;;;;;14.57;10.30;;;25.70;77.50;;;;;;5116650;28;20381;-68
2021/06/25 10:39:13;;;;;;;14.77;10.65;;;25.90;76.00;;;;;;5097808;28;20081;-68
2021/06/25 10:41:50;;;;;;;12.27;10.38;;;25.90;76.70;;;;;;5115903;28;20027;-68
2021/06/25 10:44:35;;;;;;;15.85;11.02;;;26.30;77.70;;;;;;5115561;28;20389;-68
2021/06/25 10:47:25;;;;;;;15.98;11.50;;;26.20;76.60;;;;;;5097641;28;20457;-68
2021/06/25 10:53:05;;;;;;;17.38;13.90;;;25.60;76.60;;;;;;5110962;27;20363;-70
2021/06/25 10:55:31;;;;;;;16.58;11.32;;;25.00;75.30;;;;;;5109345;28;20051;-69
2021/06/25 11:00:52;;;;;;;16.20;9.38;;;24.60;83.20;;;;;;5090556;27;20155;-68
2021/06/25 11:03:41;;;;;;;14.30;11.63;;;25.10;85.80;;;;;;5090098;28;20477;-67
2021/06/25 11:06:10;;;;;;;13.80;10.82;;;24.90;87.00;;;;;;5090690;28;20020;-67
2021/06/25 11:09:04;;;;;;;18.10;12.20;;;25.10;88.50;;;;;;5080524;28;20033;-67
2021/06/25 11:11:29;;;;;;;15.23;11.88;;;24.90;86.20;;;;;;5089859;28;20031;-67
2021/06/25 11:13:55;;;;;;;18.60;12.35;;;25.00;86.50;;;;;;5089486;28;20111;-67
2021/06/25 11:16:21;;;;;;;15.63;12.48;;;24.90;87.60;;;;;;5101692;28;20111;-67
2021/06/25 11:18:47;;;;;;;18.10;13.77;;;24.60;87.70;;;;;;5109339;28;20035;-67
2021/06/25 11:21:12;;;;;;;19.30;13.70;;;24.40;85.80;;;;;;5109030;28;20048;-67
2021/06/25 11:23:42;;;;;;;21.27;15.05;;;24.50;89.70;;;;;;5092254;28;20051;-67
2021/06/25 11:28:56;;;;;;;17.58;14.93;;;24.20;89.90;;;;;;5090846;27;20352;-67
2021/06/25 11:31:26;;;;;;;21.80;15.55;;;24.40;88.50;;;;;;5090538;28;20028;-67
2021/06/25 11:33:57;;;;;;;22.50;16.58;;;24.30;91.10;;;;;;5090182;28;20021;-66
2021/06/25 11:36:54;;;;;;;22.17;16.95;;;24.60;90.20;;;;;;5089866;28;20024;-67
2021/06/25 11:39:32;;;;;;;22.25;17.08;;;24.60;90.00;;;;;;5090395;28;20025;-69
2021/06/25 11:44:48;;;;;;;25.85;19.73;;;24.40;90.70;;;;;;5070339;28;20399;-67
2021/06/25 11:47:27;;;;;;;25.50;19.37;;;23.70;92.20;;;;;;5070241;28;20020;-67
2021/06/25 11:52:35;;;;;;;25.67;19.75;;;23.90;93.70;;;;;;5070309;28;20418;-67
2021/06/25 11:55:08;;;;;;;27.70;20.88;;;23.80;93.00;;;;;;5069271;28;20044;-67
2021/06/25 11:57:36;;;;;;;27.13;19.90;;;23.70;93.40;;;;;;5069969;28;20032;-73
2021/06/25 12:00:15;;;;;;;24.20;20.00;;;23.70;94.60;;;;;;5070308;28;20462;-74
2021/06/25 12:02:59;;;;;;;26.45;19.42;;;23.50;94.60;;;;;;5070251;28;20024;-74
2021/06/25 12:05:33;;;;;;;28.55;20.45;;;24.00;94.10;;;;;;5068840;28;20208;-74
2021/06/25 12:08:10;;;;;;;27.60;21.20;;;23.80;93.80;;;;;;5069220;28;20489;-73
2021/06/25 12:10:38;;;;;;;27.67;21.17;;;23.70;93.90;;;;;;5069584;28;20028;-73
2021/06/25 12:13:04;;;;;;;26.77;21.17;;;24.00;94.50;;;;;;5068802;28;20063;-74
2021/06/25 12:15:29;;;;;;;27.10;21.33;;;24.30;94.10;;;;;;5069928;28;20021;-74
2021/06/25 12:17:57;;;;;;;29.88;22.20;;;24.40;94.20;;;;;;5068745;28;20389;-74
2021/06/25 12:20:28;;;;;;;27.55;22.08;;;24.00;92.80;;;;;;5068643;28;20049;-74
2021/06/25 12:25:43;;;;;;;29.95;21.17;;;24.30;93.70;;;;;;5090945;28;20738;-74
2021/06/25 12:28:16;;;;;;;27.83;21.48;;;24.40;95.10;;;;;;5090634;28;20473;-73
2021/06/25 12:30:49;;;;;;;28.57;22.13;;;24.80;94.10;;;;;;5089641;28;20051;-73
2021/06/25 12:33:15;;;;;;;;;;;24.40;93.30;;;;;;5089602;28;20101;-74
2021/06/25 12:35:47;;;;;;;27.52;20.38;;;23.90;92.90;;;;;;5090349;28;19958;-74
2021/06/25 12:38:15;;;;;;;21.58;16.85;;;24.20;94.00;;;;;;5089616;28;20024;-73
2021/06/25 12:40:45;;;;;;;21.40;16.45;;;24.20;93.20;;;;;;5090502;28;20020;-73
2021/06/25 12:43:14;;;;;;;28.13;20.25;;;24.20;92.20;;;;;;5088868;28;20470;-73
2021/06/25 12:45:49;;;;;;;19.75;16.30;;;24.10;91.20;;;;;;5090515;28;20024;-74
2021/06/25 12:48:18;;;;;;;21.00;16.25;;;23.90;92.70;;;;;;5088620;28;20028;-73
2021/06/25 12:50:44;;;;;;;19.65;15.70;;;24.50;93.00;;;;;;5088864;28;20474;-74
2021/06/25 12:53:15;;;;;;;21.83;16.35;;;25.30;92.50;;;;;;5090281;28;20025;-74
2021/06/25 12:55:44;;;;;;;22.77;17.50;;;25.40;92.30;;;;;;5072979;28;20039;-74
2021/06/25 12:58:12;;;;;;;23.58;17.70;;;25.30;91.20;;;;;;5090357;28;20065;-74
2021/06/25 13:00:38;;;;;;;21.98;18.13;;;25.20;92.20;;;;;;5089799;28;20025;-74
2021/06/25 13:03:04;;;;;;;22.75;18.85;;;24.90;90.60;;;;;;5088849;28;20016;-74